createdAt,value
2023-12-12T00:02:03.108Z,0.90
2023-12-12T00:04:29.896Z,0.98
2023-12-12T00:06:56.721Z,1.02
2023-12-12T00:09:23.485Z,0.75
2023-12-12T00:11:50.447Z,0.82
2023-12-12T00:14:17.114Z,0.70
2023-12-12T00:16:43.903Z,1.10
2023-12-12T00:19:10.843Z,0.88
2023-12-12T00:21:37.786Z,0.80
2023-12-12T00:24:04.883Z,0.70
2023-12-12T00:26:31.549Z,0.80
2023-12-12T00:28:58.416Z,0.73
2023-12-12T00:31:25.106Z,0.90
2023-12-12T00:33:51.868Z,0.80
2023-12-12T00:36:18.902Z,1.02
2023-12-12T00:38:45.710Z,0.85
2023-12-12T00:41:12.652Z,0.85
2023-12-12T00:43:41.843Z,0.80
2023-12-12T00:46:11.607Z,0.90
2023-12-12T00:48:38.582Z,1.00
2023-12-12T00:51:08.773Z,0.75
2023-12-12T00:53:35.572Z,0.88
2023-12-12T00:56:02.198Z,0.85
2023-12-12T00:58:28.962Z,0.95
2023-12-12T01:00:55.752Z,1.15
2023-12-12T01:03:22.558Z,0.85
2023-12-12T01:05:49.306Z,0.93
2023-12-12T01:08:16.000Z,1.00
2023-12-12T01:10:42.773Z,1.10
2023-12-12T01:13:09.504Z,0.90
2023-12-12T01:15:36.139Z,1.02
2023-12-12T01:18:03.060Z,1.00
2023-12-12T01:20:29.779Z,0.82
2023-12-12T01:22:56.480Z,0.63
2023-12-12T01:25:23.584Z,0.70
2023-12-12T01:27:50.277Z,0.50
2023-12-12T01:30:16.997Z,0.90
2023-12-12T01:32:43.711Z,1.00
2023-12-12T01:35:10.833Z,0.95
2023-12-12T01:37:37.737Z,0.90
2023-12-12T01:40:06.094Z,1.27
2023-12-12T01:42:32.862Z,1.10
2023-12-12T01:45:00.057Z,1.42
2023-12-12T01:47:28.065Z,1.10
2023-12-12T01:49:55.238Z,0.90
2023-12-12T01:52:24.152Z,1.10
2023-12-12T01:54:51.342Z,1.10
2023-12-12T01:57:21.305Z,0.88
2023-12-12T01:59:50.114Z,1.20
2023-12-12T02:02:20.153Z,0.80
2023-12-12T02:04:49.063Z,0.98
2023-12-12T02:07:17.004Z,0.90
2023-12-12T02:09:45.063Z,0.55
2023-12-12T02:12:11.997Z,0.82
2023-12-12T02:14:38.810Z,0.70
2023-12-12T02:17:05.970Z,0.98
2023-12-12T02:19:32.755Z,0.90
2023-12-12T02:21:59.446Z,0.80
2023-12-12T02:24:26.141Z,0.73
2023-12-12T02:26:53.075Z,0.95
2023-12-12T02:29:19.865Z,0.70
2023-12-12T02:31:46.536Z,0.60
2023-12-12T02:34:13.352Z,0.60
2023-12-12T02:36:40.032Z,0.60
2023-12-12T02:39:06.821Z,0.60
2023-12-12T02:41:33.474Z,0.52
2023-12-12T02:44:00.147Z,0.60
2023-12-12T02:46:26.829Z,0.68
2023-12-12T02:48:53.614Z,0.95
2023-12-12T02:51:20.414Z,0.70
2023-12-12T02:53:47.156Z,0.65
2023-12-12T02:56:13.779Z,0.52
2023-12-12T02:58:40.481Z,0.50
2023-12-12T03:01:07.266Z,0.47
2023-12-12T03:03:34.067Z,0.45
2023-12-12T03:06:01.013Z,0.57
2023-12-12T03:08:27.796Z,0.80
2023-12-12T03:10:54.444Z,0.60
2023-12-12T03:13:21.101Z,0.50
2023-12-12T03:15:47.722Z,0.40
2023-12-12T03:18:14.425Z,0.20
2023-12-12T03:20:41.179Z,0.30
2023-12-12T03:23:07.844Z,0.40
2023-12-12T03:25:34.592Z,0.30
2023-12-12T03:28:01.586Z,0.60
2023-12-12T03:30:28.258Z,0.43
2023-12-12T03:32:54.969Z,0.40
2023-12-12T03:35:21.670Z,0.50
2023-12-12T03:37:48.306Z,0.55
2023-12-12T03:40:15.153Z,0.57
2023-12-12T03:42:41.767Z,0.50
2023-12-12T03:45:09.256Z,0.55
2023-12-12T03:47:36.200Z,0.68
2023-12-12T03:50:03.616Z,0.68
2023-12-12T03:52:30.339Z,0.60
2023-12-12T03:54:57.049Z,1.13
2023-12-12T03:57:23.763Z,0.70
2023-12-12T03:59:50.497Z,0.90
2023-12-12T04:02:17.264Z,0.65
2023-12-12T04:04:44.196Z,1.02
2023-12-12T04:07:10.844Z,0.82
2023-12-12T04:09:37.508Z,1.02
2023-12-12T04:12:04.502Z,1.10
2023-12-12T04:14:31.109Z,0.80
2023-12-12T04:16:57.908Z,1.30
2023-12-12T04:19:24.685Z,1.10
2023-12-12T04:21:52.612Z,1.00
2023-12-12T04:24:19.353Z,1.00
2023-12-12T04:26:45.982Z,1.00
2023-12-12T04:29:12.837Z,1.08
2023-12-12T04:31:39.572Z,1.00
2023-12-12T04:34:06.335Z,1.83
2023-12-12T04:36:34.407Z,1.10
2023-12-12T04:39:01.106Z,1.27
2023-12-12T04:41:27.742Z,1.30
2023-12-12T04:43:54.480Z,1.20
2023-12-12T04:46:21.649Z,1.17
2023-12-12T04:48:48.893Z,1.33
2023-12-12T04:51:15.638Z,1.23
2023-12-12T04:53:42.358Z,0.90
2023-12-12T04:56:09.713Z,1.00
2023-12-12T04:58:36.406Z,1.30
2023-12-12T05:01:03.180Z,1.20
2023-12-12T05:03:29.912Z,1.63
2023-12-12T05:05:56.849Z,0.95
2023-12-12T05:08:23.532Z,1.00
2023-12-12T05:10:50.198Z,1.10
2023-12-12T05:13:17.107Z,0.98
2023-12-12T05:15:43.886Z,1.30
2023-12-12T05:18:10.891Z,1.25
2023-12-12T05:20:37.712Z,1.00
2023-12-12T05:23:04.281Z,1.88
2023-12-12T05:25:30.933Z,1.05
2023-12-12T05:27:57.748Z,1.30
2023-12-12T05:30:24.491Z,1.20
2023-12-12T05:32:51.185Z,1.65
2023-12-12T05:35:17.859Z,1.30
2023-12-12T05:37:45.238Z,1.33
2023-12-12T05:40:15.570Z,1.52
2023-12-12T05:42:43.047Z,1.30
2023-12-12T05:45:09.891Z,1.30
2023-12-12T05:47:37.209Z,1.20
2023-12-12T05:50:07.683Z,1.02
2023-12-12T05:52:34.472Z,1.48
2023-12-12T05:55:01.240Z,1.58
2023-12-12T05:57:28.523Z,1.83
2023-12-12T05:59:55.298Z,1.95
2023-12-12T06:02:21.951Z,1.30
2023-12-12T06:04:49.744Z,1.80
2023-12-12T06:07:16.571Z,1.60
2023-12-12T06:09:43.311Z,1.70
2023-12-12T06:12:10.030Z,1.70
2023-12-12T06:14:36.767Z,1.80
2023-12-12T06:17:06.816Z,1.80
2023-12-12T06:19:33.528Z,1.42
2023-12-12T06:22:00.313Z,1.60
2023-12-12T06:24:26.963Z,1.70
2023-12-12T06:26:53.580Z,1.45
2023-12-12T06:29:20.456Z,1.80
2023-12-12T06:31:47.195Z,1.67
2023-12-12T06:34:14.606Z,1.73
2023-12-12T06:36:41.583Z,1.52
2023-12-12T06:39:11.221Z,1.50
2023-12-12T06:41:38.632Z,1.63
2023-12-12T06:44:05.747Z,2.05
2023-12-12T06:46:32.451Z,1.88
2023-12-12T06:48:59.960Z,1.77
2023-12-12T06:51:27.567Z,2.22
2023-12-12T06:53:55.105Z,2.78
2023-12-12T06:56:22.208Z,1.65
2023-12-12T06:58:49.089Z,1.55
2023-12-12T07:01:15.826Z,1.60
2023-12-12T07:03:42.577Z,1.73
2023-12-12T07:06:10.456Z,1.45
2023-12-12T07:08:37.797Z,1.50
2023-12-12T07:11:04.756Z,1.73
2023-12-12T07:13:31.429Z,1.60
2023-12-12T07:15:58.074Z,1.50
2023-12-12T07:18:25.743Z,1.80
2023-12-12T07:20:52.409Z,1.98
2023-12-12T07:23:19.146Z,1.95
2023-12-12T07:25:47.227Z,1.50
2023-12-12T07:28:13.954Z,1.55
2023-12-12T07:30:40.606Z,1.73
2023-12-12T07:33:07.420Z,1.48
2023-12-12T07:35:34.258Z,1.45
2023-12-12T07:38:02.410Z,1.63
2023-12-12T07:40:31.637Z,1.30
2023-12-12T07:42:59.141Z,1.23
2023-12-12T07:45:26.035Z,1.20
2023-12-12T07:47:53.222Z,1.00
2023-12-12T07:50:20.142Z,1.23
2023-12-12T07:52:48.507Z,1.50
2023-12-12T07:55:15.463Z,1.20
2023-12-12T07:57:43.011Z,1.70
2023-12-12T08:00:11.501Z,1.90
2023-12-12T08:02:39.107Z,1.48
2023-12-12T08:05:07.506Z,2.00
2023-12-12T08:07:34.568Z,1.40
2023-12-12T08:10:01.616Z,1.33
2023-12-12T08:12:29.448Z,1.02
2023-12-12T08:14:56.991Z,1.42
2023-12-12T08:17:23.831Z,1.70
2023-12-12T08:19:51.661Z,1.45
2023-12-12T08:22:18.438Z,1.45
2023-12-12T08:24:46.508Z,1.90
2023-12-12T08:27:13.812Z,1.23
2023-12-12T08:29:40.417Z,1.30
2023-12-12T08:32:07.448Z,1.42
2023-12-12T08:34:34.960Z,1.40
2023-12-12T08:37:02.470Z,1.10
2023-12-12T08:39:29.915Z,1.02
2023-12-12T08:41:59.922Z,1.23
2023-12-12T08:44:27.058Z,1.42
2023-12-12T08:46:53.767Z,1.30
2023-12-12T08:49:20.647Z,1.35
2023-12-12T08:51:48.994Z,1.10
2023-12-12T08:54:15.714Z,1.30
2023-12-12T08:56:43.631Z,1.48
2023-12-12T08:59:10.488Z,1.25
2023-12-12T09:01:37.257Z,1.20
2023-12-12T09:04:04.308Z,1.30
2023-12-12T09:06:30.981Z,1.45
2023-12-12T09:08:57.656Z,1.40
2023-12-12T09:11:24.571Z,1.48
2023-12-12T09:13:51.137Z,1.52
2023-12-12T09:16:17.852Z,1.58
2023-12-12T09:18:44.663Z,1.20
2023-12-12T09:21:15.258Z,1.83
2023-12-12T09:23:42.708Z,1.75
2023-12-12T09:26:14.149Z,2.03
2023-12-12T09:28:44.254Z,1.58
2023-12-12T09:31:11.739Z,1.63
2023-12-12T09:33:39.546Z,1.65
2023-12-12T09:36:07.468Z,1.80
2023-12-12T09:38:34.102Z,1.95
2023-12-12T09:41:02.073Z,1.50
2023-12-12T09:43:29.613Z,1.52
2023-12-12T09:46:00.498Z,1.65
2023-12-12T09:48:27.328Z,1.75
2023-12-12T09:50:57.883Z,1.92
2023-12-12T09:53:25.794Z,1.98
2023-12-12T09:55:53.578Z,1.55
2023-12-12T09:58:20.326Z,1.45
2023-12-12T10:00:47.626Z,1.60
2023-12-12T10:03:15.011Z,2.00
2023-12-12T10:05:48.261Z,1.50
2023-12-12T10:08:16.019Z,2.00
2023-12-12T10:10:43.508Z,1.20
2023-12-12T10:13:10.461Z,2.33
2023-12-12T10:15:37.728Z,2.00
2023-12-12T10:18:04.693Z,1.30
2023-12-12T10:20:32.615Z,1.73
2023-12-12T10:23:03.822Z,1.42
2023-12-12T10:28:01.485Z,1.40
2023-12-12T10:30:28.521Z,1.20
2023-12-12T10:32:56.904Z,1.30
2023-12-12T10:35:25.172Z,1.63
2023-12-12T10:37:54.129Z,1.55
2023-12-12T10:40:23.707Z,1.50
2023-12-12T10:42:51.591Z,0.80
2023-12-12T10:45:19.244Z,1.20
2023-12-12T10:47:50.711Z,1.13
2023-12-12T10:50:19.525Z,1.80
2023-12-12T10:52:51.898Z,1.50
2023-12-12T10:55:20.666Z,1.65
2023-12-12T10:57:48.776Z,1.10
2023-12-12T11:00:19.437Z,1.58
2023-12-12T11:02:49.088Z,1.23
2023-12-12T11:05:17.546Z,1.67
2023-12-12T11:07:48.133Z,1.25
2023-12-12T11:12:50.069Z,1.50
2023-12-12T11:15:18.348Z,1.35
2023-12-12T11:17:46.329Z,1.20
2023-12-12T11:20:15.147Z,1.60
2023-12-12T11:22:44.284Z,1.20
2023-12-12T11:25:17.725Z,0.90
2023-12-12T11:27:52.547Z,2.10
2023-12-12T11:30:21.306Z,1.27
2023-12-12T11:32:48.704Z,1.55
2023-12-12T11:35:33.913Z,1.60
2023-12-12T11:38:06.982Z,1.20
2023-12-12T11:40:36.378Z,1.90
2023-12-12T11:43:21.322Z,1.20
2023-12-12T11:45:48.371Z,3.78
2023-12-12T11:48:16.152Z,2.90
2023-12-12T11:50:43.171Z,2.70
2023-12-12T11:53:10.104Z,1.23
2023-12-12T11:55:43.693Z,1.40
2023-12-12T11:58:14.901Z,1.50
2023-12-12T12:00:42.335Z,1.30
2023-12-12T12:03:12.513Z,1.30
2023-12-12T12:05:39.554Z,2.38
2023-12-12T12:08:08.602Z,1.00
2023-12-12T12:10:56.411Z,1.55
2023-12-12T12:13:23.273Z,2.15
2023-12-12T12:15:51.509Z,1.48
2023-12-12T12:18:28.003Z,1.70
2023-12-12T12:20:54.942Z,1.77
2023-12-12T12:23:21.586Z,1.10
2023-12-12T12:25:48.518Z,1.50
2023-12-12T12:28:15.406Z,1.40
2023-12-12T12:30:48.198Z,1.10
2023-12-12T12:33:15.386Z,1.65
2023-12-12T12:35:53.051Z,1.20
2023-12-12T12:38:27.082Z,1.25
2023-12-12T12:40:54.275Z,1.70
2023-12-12T12:43:23.949Z,1.23
2023-12-12T12:45:52.270Z,2.00
2023-12-12T12:48:21.042Z,1.70
2023-12-12T12:50:50.430Z,1.30
2023-12-12T12:53:17.663Z,1.30
2023-12-12T12:55:45.303Z,2.05
2023-12-12T12:58:13.603Z,1.50
2023-12-12T13:00:42.880Z,1.70
2023-12-12T13:03:12.192Z,1.80
2023-12-12T13:05:40.246Z,1.88
2023-12-12T13:08:07.090Z,1.98
2023-12-12T13:10:43.234Z,1.63
2023-12-12T13:13:14.917Z,1.70
2023-12-12T13:15:41.885Z,1.67
2023-12-12T13:18:08.615Z,1.50
2023-12-12T13:20:35.303Z,1.15
2023-12-12T13:23:02.008Z,1.67
2023-12-12T13:25:28.895Z,1.42
2023-12-12T13:27:55.727Z,1.63
2023-12-12T13:30:22.546Z,1.33
2023-12-12T13:32:49.691Z,1.25
2023-12-12T13:35:27.145Z,1.27
2023-12-12T13:38:02.365Z,1.80
2023-12-12T13:40:36.047Z,1.48
2023-12-12T13:43:03.954Z,1.13
2023-12-12T13:45:31.421Z,1.30
2023-12-12T13:47:58.283Z,1.90
2023-12-12T13:50:25.050Z,1.20
2023-12-12T13:52:54.014Z,1.55
2023-12-12T13:55:20.972Z,1.17
2023-12-12T13:58:08.132Z,1.30
2023-12-12T14:00:34.934Z,1.30
2023-12-12T14:03:01.880Z,1.65
2023-12-12T14:05:29.802Z,1.65
2023-12-12T14:07:56.904Z,1.30
2023-12-12T14:10:24.232Z,3.00
2023-12-12T14:12:51.172Z,1.50
2023-12-12T14:15:17.890Z,1.77
2023-12-12T14:17:44.612Z,1.48
2023-12-12T14:20:11.639Z,1.30
2023-12-12T14:22:39.390Z,1.77
2023-12-12T14:25:07.009Z,1.80
2023-12-12T14:27:34.104Z,1.88
2023-12-12T14:30:00.879Z,2.10
2023-12-12T14:32:27.611Z,1.63
2023-12-12T14:34:54.833Z,1.70
2023-12-12T14:37:21.687Z,2.28
2023-12-12T14:39:48.450Z,1.75
2023-12-12T14:42:15.379Z,2.08
2023-12-12T14:44:42.994Z,1.92
2023-12-12T14:47:09.850Z,1.73
2023-12-12T14:49:36.741Z,2.67
2023-12-12T14:52:03.696Z,1.92
2023-12-12T14:54:31.489Z,1.83
2023-12-12T14:57:06.105Z,1.70
2023-12-12T14:59:38.780Z,2.03
2023-12-12T15:02:05.684Z,1.55
2023-12-12T15:04:32.682Z,1.60
2023-12-12T15:06:59.644Z,1.70
2023-12-12T15:09:26.373Z,1.40
2023-12-12T15:11:53.963Z,2.17
2023-12-12T15:14:21.579Z,2.35
2023-12-12T15:16:48.436Z,2.25
2023-12-12T15:19:15.388Z,2.25
2023-12-12T15:21:42.290Z,2.55
2023-12-12T15:24:11.652Z,2.20
2023-12-12T15:26:41.452Z,2.70
2023-12-12T15:29:09.581Z,2.13
2023-12-12T15:31:36.759Z,2.65
2023-12-12T15:34:03.978Z,2.78
2023-12-12T15:36:31.248Z,2.50
2023-12-12T15:38:58.229Z,2.30
2023-12-12T15:41:25.102Z,2.75
2023-12-12T15:43:51.802Z,2.47
2023-12-12T15:46:19.877Z,2.20
2023-12-12T15:48:47.539Z,2.05
2023-12-12T15:51:15.024Z,1.48
2023-12-12T15:53:41.889Z,2.70
2023-12-12T15:56:12.813Z,3.65
2023-12-12T16:01:11.098Z,2.42
2023-12-12T16:03:38.088Z,2.72
2023-12-12T16:06:08.306Z,2.83
2023-12-12T16:08:35.513Z,2.30
2023-12-12T16:11:02.358Z,2.75
2023-12-12T16:13:30.065Z,2.05
2023-12-12T16:15:56.998Z,2.38
2023-12-12T16:18:24.274Z,2.55
2023-12-12T16:20:55.451Z,2.35
2023-12-12T16:23:22.156Z,2.50
2023-12-12T16:25:48.976Z,2.08
2023-12-12T16:28:16.085Z,2.15
2023-12-12T16:30:42.870Z,2.42
2023-12-12T16:33:12.235Z,2.22
2023-12-12T16:35:39.071Z,2.67
2023-12-12T16:38:06.018Z,2.00
2023-12-12T16:40:38.535Z,2.40
2023-12-12T16:43:05.404Z,2.08
2023-12-12T16:45:38.842Z,2.45
2023-12-12T16:48:09.729Z,2.53
2023-12-12T16:50:37.184Z,2.67
2023-12-12T16:53:04.347Z,2.30
2023-12-12T16:55:31.464Z,3.00
2023-12-12T16:57:58.190Z,3.10
2023-12-12T17:00:24.940Z,2.88
2023-12-12T17:02:56.320Z,2.58
2023-12-12T17:05:23.213Z,2.78
2023-12-12T17:07:53.149Z,3.30
2023-12-12T17:10:20.415Z,2.22
2023-12-12T17:12:49.487Z,2.45
2023-12-12T17:15:17.477Z,1.90
2023-12-12T17:17:44.312Z,2.08
2023-12-12T17:20:11.783Z,2.40
2023-12-12T17:22:39.629Z,2.85
2023-12-12T17:25:08.092Z,3.40
2023-12-12T17:27:35.670Z,2.70
2023-12-12T17:30:04.238Z,2.80
2023-12-12T17:32:31.128Z,3.08
2023-12-12T17:35:00.031Z,3.47
2023-12-12T17:37:26.852Z,2.90
2023-12-12T17:39:53.736Z,3.00
2023-12-12T17:42:20.896Z,3.10
2023-12-12T17:44:48.697Z,2.60
2023-12-12T17:47:16.038Z,3.85
2023-12-12T17:49:43.566Z,2.20
2023-12-12T17:52:10.675Z,2.97
2023-12-12T17:54:37.368Z,2.80
2023-12-12T17:57:04.372Z,3.15
2023-12-12T17:59:31.094Z,2.92
2023-12-12T18:01:59.365Z,3.63
2023-12-12T18:04:27.214Z,3.05
2023-12-12T18:06:57.937Z,3.78
2023-12-12T18:09:24.797Z,3.40
2023-12-12T18:11:51.505Z,2.38
2023-12-12T18:14:18.426Z,3.60
2023-12-12T18:16:45.167Z,4.20
2023-12-12T18:19:12.446Z,4.38
2023-12-12T18:21:39.252Z,3.90
2023-12-12T18:24:06.718Z,4.07
2023-12-12T18:26:33.506Z,3.40
2023-12-12T18:29:01.767Z,3.78
2023-12-12T18:31:31.249Z,3.17
2023-12-12T18:33:59.050Z,3.58
2023-12-12T18:36:26.384Z,4.00
2023-12-12T18:38:53.557Z,4.20
2023-12-12T18:41:21.806Z,3.50
2023-12-12T18:43:51.906Z,3.50
2023-12-12T18:46:21.366Z,3.72
2023-12-12T18:48:49.610Z,2.88
2023-12-12T18:51:20.433Z,3.90
2023-12-12T18:53:48.431Z,3.67
2023-12-12T18:56:18.293Z,3.63
2023-12-12T18:58:45.332Z,3.63
2023-12-12T19:01:17.879Z,3.38
2023-12-12T19:03:45.019Z,3.55
2023-12-12T19:06:14.668Z,3.28
2023-12-12T19:08:41.899Z,3.47
2023-12-12T19:11:08.688Z,4.35
2023-12-12T19:13:35.593Z,4.40
2023-12-12T19:16:03.016Z,3.00
2023-12-12T19:18:29.950Z,3.13
2023-12-12T19:20:56.748Z,3.08
2023-12-12T19:23:25.055Z,3.50
2023-12-12T19:25:51.789Z,3.17
2023-12-12T19:28:19.524Z,4.10
2023-12-12T19:30:46.264Z,3.78
2023-12-12T19:33:13.053Z,4.55
2023-12-12T19:35:40.635Z,3.45
2023-12-12T19:38:07.458Z,3.90
2023-12-12T19:40:37.448Z,4.68
2023-12-12T19:43:04.750Z,4.57
2023-12-12T19:45:31.686Z,4.00
2023-12-12T19:47:59.096Z,4.45
2023-12-12T19:50:26.053Z,6.40
2023-12-12T19:52:54.104Z,6.55
2023-12-12T19:55:20.985Z,7.13
2023-12-12T19:57:48.489Z,5.13
2023-12-12T20:00:15.683Z,4.82
2023-12-12T20:02:43.660Z,4.28
2023-12-12T20:05:10.404Z,4.57
2023-12-12T20:07:38.191Z,4.07
2023-12-12T20:10:10.575Z,3.90
2023-12-12T20:12:43.288Z,4.22
2023-12-12T20:15:11.267Z,3.53
2023-12-12T20:17:38.270Z,3.83
2023-12-12T20:20:05.751Z,3.60
2023-12-12T20:22:32.432Z,3.88
2023-12-12T20:24:59.344Z,4.07
2023-12-12T20:27:27.140Z,4.65
2023-12-12T20:29:54.224Z,4.22
2023-12-12T20:32:21.133Z,3.85
2023-12-12T20:34:51.090Z,4.70
2023-12-12T20:37:18.238Z,3.80
2023-12-12T20:39:45.443Z,4.22
2023-12-12T20:42:13.472Z,3.85
2023-12-12T20:44:40.265Z,3.70
2023-12-12T20:47:07.306Z,6.32
2023-12-12T20:49:34.901Z,3.90
2023-12-12T20:52:01.921Z,5.85
2023-12-12T20:54:30.989Z,4.68
2023-12-12T20:56:57.814Z,3.58
2023-12-12T20:59:25.992Z,3.50
2023-12-12T21:01:52.716Z,3.05
2023-12-12T21:04:19.591Z,3.38
2023-12-12T21:06:46.734Z,2.90
2023-12-12T21:09:14.304Z,3.40
2023-12-12T21:11:41.088Z,3.20
2023-12-12T21:14:08.442Z,3.08
2023-12-12T21:16:35.204Z,2.80
2023-12-12T21:19:03.646Z,2.53
2023-12-12T21:21:31.219Z,2.63
2023-12-12T21:23:58.221Z,2.78
2023-12-12T21:26:25.167Z,2.75
2023-12-12T21:28:52.184Z,3.25
2023-12-12T21:31:19.242Z,2.55
2023-12-12T21:33:46.356Z,2.92
2023-12-12T21:36:13.204Z,2.60
2023-12-12T21:38:42.802Z,2.60
2023-12-12T21:41:14.391Z,3.47
2023-12-12T21:43:44.399Z,2.42
2023-12-12T21:46:11.279Z,3.42
2023-12-12T21:48:40.909Z,2.05
2023-12-12T21:51:07.826Z,2.70
2023-12-12T21:53:34.869Z,3.20
2023-12-12T21:56:03.136Z,2.75
2023-12-12T21:58:30.441Z,2.35
2023-12-12T22:00:58.865Z,2.60
2023-12-12T22:03:28.627Z,3.15
2023-12-12T22:05:55.944Z,4.72
2023-12-12T22:08:22.629Z,2.35
2023-12-12T22:10:49.315Z,4.15
2023-12-12T22:13:16.834Z,3.15
2023-12-12T22:15:43.924Z,4.18
2023-12-12T22:18:11.068Z,3.10
2023-12-12T22:20:38.002Z,3.33
2023-12-12T22:23:07.747Z,2.45
2023-12-12T22:25:34.941Z,3.30
2023-12-12T22:28:01.772Z,2.78
2023-12-12T22:30:32.124Z,3.35
2023-12-12T22:32:58.998Z,3.42
2023-12-12T22:35:25.699Z,2.88
2023-12-12T22:37:52.558Z,2.85
2023-12-12T22:40:19.295Z,3.78
2023-12-12T22:42:45.947Z,3.25
2023-12-12T22:45:12.756Z,3.75
2023-12-12T22:47:39.697Z,3.20
2023-12-12T22:50:07.578Z,3.20
2023-12-12T22:52:34.394Z,4.07
2023-12-12T22:55:01.068Z,4.63
2023-12-12T22:57:27.673Z,3.65
2023-12-12T22:59:54.328Z,3.80
2023-12-12T23:02:21.002Z,3.50
2023-12-12T23:04:47.727Z,4.00
2023-12-12T23:07:14.880Z,3.22
2023-12-12T23:09:41.579Z,2.60
2023-12-12T23:12:08.556Z,3.63
2023-12-12T23:14:37.811Z,3.20
2023-12-12T23:17:05.983Z,3.15
2023-12-12T23:19:32.710Z,3.55
2023-12-12T23:21:59.695Z,3.05
2023-12-12T23:24:27.262Z,3.53
2023-12-12T23:26:54.100Z,2.90
2023-12-12T23:29:20.736Z,3.88
2023-12-12T23:31:48.520Z,3.03
2023-12-12T23:34:15.435Z,3.33
2023-12-12T23:36:42.884Z,3.45
2023-12-12T23:39:10.124Z,3.08
2023-12-12T23:41:42.406Z,3.33
2023-12-12T23:44:09.249Z,3.60
2023-12-12T23:46:44.803Z,3.20
2023-12-12T23:49:15.720Z,3.30
2023-12-12T23:51:43.096Z,3.42
2023-12-12T23:54:09.932Z,3.83
2023-12-12T23:56:38.287Z,3.40
2023-12-12T23:59:04.947Z,3.30
